Time,TemperatureF,DewpointF,PressureIn,WindDirection,WindDirectionDegrees,WindSpeedMPH,WindSpeedGustMPH,Humidity,HourlyPrecipIn,Conditions,Clouds,dailyrainin,SolarRadiationWatts/m^2,SoftwareType,DateUTC
2013-08-20 02:00:00,57.0,55.0,-100.00,SW,225,0.0,-999.0,92,-99.99,,,-99.99,0.000000,,2013-08-20 06:00:00,
2013-08-20 02:42:00,57.0,55.0,-100.00,SW,225,0.0,-999.0,92,-99.99,,,-99.99,0.000000,,2013-08-20 06:42:00,
2013-08-20 02:52:00,57.0,55.0,-100.00,SW,225,0.0,-999.0,92,-99.99,,,-99.99,0.000000,,2013-08-20 06:52:00,
2013-08-20 03:00:00,58.0,55.0,-100.00,SSW,202,0.0,-999.0,92,-99.99,,,-99.99,0.000000,,2013-08-20 07:00:00,
2013-08-20 03:42:00,58.0,55.0,-100.00,SSW,202,0.0,-999.0,92,-99.99,,,-99.99,0.000000,,2013-08-20 07:42:00,
2013-08-20 03:52:00,58.0,55.0,-100.00,SSW,202,0.0,-999.0,92,-99.99,,,-99.99,0.000000,,2013-08-20 07:52:00,
2013-08-20 04:00:00,56.0,54.0,-100.00,SSE,157,0.0,-999.0,93,-99.99,,,-99.99,0.000000,,2013-08-20 08:00:00,
2013-08-20 04:42:00,56.0,54.0,-100.00,SSE,157,0.0,-999.0,93,-99.99,,,-99.99,0.000000,,2013-08-20 08:42:00,
2013-08-20 04:52:00,56.0,54.0,-100.00,SSE,157,0.0,-999.0,93,-99.99,,,-99.99,0.000000,,2013-08-20 08:52:00,
2013-08-20 05:00:00,56.0,55.0,-100.00,SSE,157,0.0,-999.0,95,-99.99,,,-99.99,0.000000,,2013-08-20 09:00:00,
2013-08-20 05:42:00,56.0,55.0,-100.00,SSE,157,0.0,-999.0,95,-99.99,,,-99.99,0.000000,,2013-08-20 09:42:00,
2013-08-20 05:53:00,56.0,55.0,-100.00,SSE,157,0.0,-999.0,95,-99.99,,,-99.99,0.000000,,2013-08-20 09:53:00,
2013-08-20 06:00:00,58.0,56.0,-100.00,South,180,0.0,-999.0,94,-99.99,,,-99.99,0.000000,,2013-08-20 10:00:00,
2013-08-20 06:43:00,58.0,56.0,-100.00,South,180,0.0,-999.0,94,-99.99,,,-99.99,0.000000,,2013-08-20 10:43:00,
2013-08-20 06:52:00,58.0,56.0,-100.00,South,180,0.0,-999.0,94,-99.99,,,-99.99,0.000000,,2013-08-20 10:52:00,
2013-08-20 07:00:00,56.0,55.0,-100.00,South,180,0.0,-999.0,94,-99.99,,,-99.99,2.320000,,2013-08-20 11:00:00,
2013-08-20 07:42:00,56.0,55.0,-100.00,South,180,0.0,-999.0,94,-99.99,,,-99.99,2.320000,,2013-08-20 11:42:00,
2013-08-20 07:52:00,56.0,55.0,-100.00,South,180,0.0,-999.0,94,-99.99,,,-99.99,2.320000,,2013-08-20 11:52:00,
2013-08-20 08:00:00,58.0,56.0,-100.00,WNW,292,0.0,-999.0,93,-99.99,,,-99.99,52.200001,,2013-08-20 12:00:00,
2013-08-20 08:42:00,58.0,56.0,-100.00,WNW,292,0.0,-999.0,93,-99.99,,,-99.99,52.200001,,2013-08-20 12:42:00,
2013-08-20 08:52:00,58.0,56.0,-100.00,WNW,292,0.0,-999.0,93,-99.99,,,-99.99,52.200001,,2013-08-20 12:52:00,
2013-08-20 09:00:00,64.0,60.0,-100.00,SSW,202,0.0,-999.0,87,-99.99,,,-99.99,171.679993,,2013-08-20 13:00:00,
2013-08-20 09:42:00,64.0,60.0,-100.00,SSW,202,0.0,-999.0,87,-99.99,,,-99.99,171.679993,,2013-08-20 13:42:00,
2013-08-20 09:52:00,64.0,60.0,-100.00,SSW,202,0.0,-999.0,87,-99.99,,,-99.99,171.679993,,2013-08-20 13:52:00,
2013-08-20 10:00:00,70.0,62.0,-100.00,SW,225,1.0,-999.0,77,-99.99,,,-99.99,360.760010,,2013-08-20 14:00:00,
2013-08-20 10:42:00,70.0,62.0,-100.00,SW,225,1.0,-999.0,77,-99.99,,,-99.99,360.760010,,2013-08-20 14:42:00,
2013-08-20 10:52:00,70.0,62.0,-100.00,SW,225,1.0,-999.0,77,-99.99,,,-99.99,360.760010,,2013-08-20 14:52:00,
2013-08-20 11:00:00,75.0,64.0,-100.00,WSW,247,3.0,-999.0,69,-99.99,,,-99.99,513.880005,,2013-08-20 15:00:00,
2013-08-20 11:43:00,75.0,64.0,-100.00,WSW,247,3.0,-999.0,69,-99.99,,,-99.99,513.880005,,2013-08-20 15:43:00,
2013-08-20 11:54:00,75.0,64.0,-100.00,WSW,247,3.0,-999.0,69,-99.99,,,-99.99,513.880005,,2013-08-20 15:54:00,
2013-08-20 12:00:00,79.0,65.0,-100.00,WSW,247,6.0,-999.0,62,-99.99,,,-99.99,633.359985,,2013-08-20 16:00:00,
2013-08-20 12:42:00,79.0,65.0,-100.00,WSW,247,6.0,-999.0,62,-99.99,,,-99.99,633.359985,,2013-08-20 16:42:00,
2013-08-20 12:53:00,79.0,65.0,-100.00,WSW,247,6.0,-999.0,62,-99.99,,,-99.99,633.359985,,2013-08-20 16:53:00,
2013-08-20 13:00:00,81.0,64.0,-100.00,WSW,247,7.0,-999.0,57,-99.99,,,-99.99,574.200012,,2013-08-20 17:00:00,
2013-08-20 13:43:00,81.0,64.0,-100.00,WSW,247,7.0,-999.0,57,-99.99,,,-99.99,574.200012,,2013-08-20 17:43:00,
2013-08-20 13:52:00,81.0,64.0,-100.00,WSW,247,7.0,-999.0,57,-99.99,,,-99.99,574.200012,,2013-08-20 17:52:00,
2013-08-20 14:00:00,82.0,64.0,-100.00,WSW,247,7.0,-999.0,53,-99.99,,,-99.99,698.320007,,2013-08-20 18:00:00,
2013-08-20 14:43:00,82.0,64.0,-100.00,WSW,247,7.0,-999.0,53,-99.99,,,-99.99,698.320007,,2013-08-20 18:43:00,
2013-08-20 14:52:00,82.0,64.0,-100.00,WSW,247,7.0,-999.0,53,-99.99,,,-99.99,698.320007,,2013-08-20 18:52:00,
2013-08-20 15:00:00,84.0,62.0,-100.00,WSW,247,8.0,-999.0,46,-99.99,,,-99.99,706.440002,,2013-08-20 19:00:00,
2013-08-20 15:42:00,84.0,62.0,-100.00,WSW,247,8.0,-999.0,46,-99.99,,,-99.99,706.440002,,2013-08-20 19:42:00,
2013-08-20 15:53:00,84.0,62.0,-100.00,WSW,247,8.0,-999.0,46,-99.99,,,-99.99,706.440002,,2013-08-20 19:53:00,
2013-08-20 16:00:00,84.0,60.0,-100.00,WSW,247,7.0,-999.0,45,-99.99,,,-99.99,475.600006,,2013-08-20 20:00:00,
2013-08-20 16:42:00,84.0,60.0,-100.00,WSW,247,7.0,-999.0,45,-99.99,,,-99.99,475.600006,,2013-08-20 20:42:00,
2013-08-20 16:52:00,84.0,60.0,-100.00,WSW,247,7.0,-999.0,45,-99.99,,,-99.99,475.600006,,2013-08-20 20:52:00,
2013-08-20 17:00:00,85.0,60.0,-100.00,WSW,247,6.0,-999.0,44,-99.99,,,-99.99,422.239990,,2013-08-20 21:00:00,
2013-08-20 17:44:00,85.0,60.0,-100.00,WSW,247,6.0,-999.0,44,-99.99,,,-99.99,422.239990,,2013-08-20 21:44:00,
2013-08-20 17:55:00,85.0,60.0,-100.00,WSW,247,6.0,-999.0,44,-99.99,,,-99.99,422.239990,,2013-08-20 21:55:00,
2013-08-20 18:00:00,85.0,60.0,-100.00,SW,225,7.0,-999.0,42,-99.99,,,-99.99,387.440002,,2013-08-20 22:00:00,
2013-08-20 18:42:00,85.0,60.0,-100.00,SW,225,7.0,-999.0,42,-99.99,,,-99.99,387.440002,,2013-08-20 22:42:00,
2013-08-20 18:54:00,85.0,60.0,-100.00,SW,225,7.0,-999.0,42,-99.99,,,-99.99,387.440002,,2013-08-20 22:54:00,
2013-08-20 19:00:00,83.0,61.0,-100.00,SW,225,4.0,-999.0,47,-99.99,,,-99.99,209.960007,,2013-08-20 23:00:00,
2013-08-20 19:43:00,83.0,61.0,-100.00,SW,225,4.0,-999.0,47,-99.99,,,-99.99,209.960007,,2013-08-20 23:43:00,
2013-08-20 19:53:00,83.0,61.0,-100.00,SW,225,4.0,-999.0,47,-99.99,,,-99.99,209.960007,,2013-08-20 23:53:00,
2013-08-20 20:00:00,79.0,63.0,-100.00,SW,225,0.0,-999.0,58,-99.99,,,-99.99,70.760002,,2013-08-21 00:00:00,
2013-08-20 20:42:00,79.0,63.0,-100.00,SW,225,0.0,-999.0,58,-99.99,,,-99.99,70.760002,,2013-08-21 00:42:00,
2013-08-20 20:52:00,79.0,63.0,-100.00,SW,225,0.0,-999.0,58,-99.99,,,-99.99,70.760002,,2013-08-21 00:52:00,
2013-08-20 21:00:00,72.0,63.0,-100.00,SSW,202,0.0,-999.0,73,-99.99,,,-99.99,9.280000,,2013-08-21 01:00:00,
2013-08-20 21:42:00,72.0,63.0,-100.00,SSW,202,0.0,-999.0,73,-99.99,,,-99.99,9.280000,,2013-08-21 01:42:00,
2013-08-20 21:52:00,72.0,63.0,-100.00,SSW,202,0.0,-999.0,73,-99.99,,,-99.99,9.280000,,2013-08-21 01:52:00,
2013-08-20 22:00:00,68.0,62.0,-100.00,SSW,202,0.0,-999.0,80,-99.99,,,-99.99,0.000000,,2013-08-21 02:00:00,
2013-08-20 22:42:00,68.0,62.0,-100.00,SSW,202,0.0,-999.0,80,-99.99,,,-99.99,0.000000,,2013-08-21 02:42:00,
2013-08-20 22:52:00,68.0,62.0,-100.00,SSW,202,0.0,-999.0,80,-99.99,,,-99.99,0.000000,,2013-08-21 02:52:00,
2013-08-20 23:00:00,65.0,61.0,-100.00,SSW,202,0.0,-999.0,86,-99.99,,,-99.99,0.000000,,2013-08-21 03:00:00,
2013-08-20 23:55:00,65.0,61.0,-100.00,SSW,202,0.0,-999.0,86,-99.99,,,-99.99,0.000000,,2013-08-21 03:55:00,